Time;durP1;ratioP1;P1;durP2;ratioP2;P2;SDS_P1;SDS_P2;PMS_P1;PMS_P2;Temp;Humidity;BMP_temperature;BMP_pressure;BME280_temperature;BME280_humidity;BME280_pressure;Samples;Min_cycle;Max_cycle;Signal;HPM_P1;HPM_P2
2021/09/08 00:00:55;;;;;;;14.87;12.83;;;17.00;99.90;;;;;;4993756;28;20454;-82
2021/09/08 00:03:22;;;;;;;16.40;13.40;;;17.00;99.90;;;;;;4994111;28;20431;-82
2021/09/08 00:05:49;;;;;;;16.00;12.57;;;17.00;99.90;;;;;;4993539;28;20457;-80
2021/09/08 00:08:15;;;;;;;18.03;12.97;;;17.00;99.90;;;;;;4996097;28;20512;-81
2021/09/08 00:10:42;;;;;;;16.00;12.50;;;17.00;99.90;;;;;;4998194;28;20540;-82
2021/09/08 00:13:09;;;;;;;15.67;11.77;;;17.00;99.90;;;;;;4998245;28;20428;-81
2021/09/08 00:15:36;;;;;;;18.47;14.00;;;16.90;99.90;;;;;;4998180;28;21044;-81
2021/09/08 00:18:04;;;;;;;13.13;11.70;;;16.80;99.90;;;;;;4996828;28;20578;-82
2021/09/08 00:20:31;;;;;;;17.77;12.60;;;16.80;99.90;;;;;;4996964;28;20454;-82
2021/09/08 00:22:58;;;;;;;19.20;12.77;;;16.70;99.90;;;;;;4997675;28;20437;-82
2021/09/08 00:25:25;;;;;;;14.40;12.70;;;16.70;99.90;;;;;;4996566;28;20420;-81
2021/09/08 00:27:52;;;;;;;15.50;12.60;;;16.70;99.90;;;;;;4996688;28;20840;-81
2021/09/08 00:30:19;;;;;;;17.07;12.50;;;16.70;99.90;;;;;;4996645;28;20458;-83
2021/09/08 00:32:45;;;;;;;16.03;12.90;;;16.80;99.90;;;;;;4997044;28;20535;-82
2021/09/08 00:35:14;;;;;;;17.67;12.90;;;16.80;99.90;;;;;;4997071;28;20438;-82
2021/09/08 00:37:41;;;;;;;16.93;12.80;;;16.70;99.90;;;;;;5000584;28;20489;-81
2021/09/08 00:40:10;;;;;;;15.97;13.70;;;16.70;99.90;;;;;;5006073;28;20938;-81
2021/09/08 00:42:37;;;;;;;16.20;13.40;;;16.70;99.90;;;;;;5006089;28;20453;-81
2021/09/08 00:45:04;;;;;;;16.07;12.47;;;16.70;99.90;;;;;;5009708;28;20456;-80
2021/09/08 00:47:31;;;;;;;13.87;12.03;;;16.70;99.90;;;;;;5006584;28;20976;-82
2021/09/08 00:49:58;;;;;;;17.43;13.10;;;16.70;99.90;;;;;;4997459;28;20456;-82
2021/09/08 00:52:26;;;;;;;19.70;13.40;;;16.70;99.90;;;;;;4998349;28;20980;-82
2021/09/08 00:54:56;;;;;;;16.23;13.07;;;16.70;99.90;;;;;;5008495;28;20540;-81
2021/09/08 00:57:23;;;;;;;16.17;12.83;;;16.80;99.90;;;;;;5010891;28;20529;-87
2021/09/08 00:59:50;;;;;;;18.80;13.73;;;16.70;99.90;;;;;;5011092;28;20541;-87
2021/09/08 01:02:17;;;;;;;16.80;12.00;;;16.70;99.90;;;;;;4998374;28;20408;-87
2021/09/08 01:04:45;;;;;;;15.77;12.50;;;16.70;99.90;;;;;;4997856;28;20534;-87
2021/09/08 01:07:12;;;;;;;16.07;12.33;;;16.60;99.90;;;;;;4998037;28;20482;-87
2021/09/08 01:09:41;;;;;;;14.50;13.00;;;16.70;99.90;;;;;;4997268;28;20501;-87
2021/09/08 01:12:08;;;;;;;14.93;12.30;;;16.60;99.90;;;;;;4996030;28;20456;-87
2021/09/08 01:14:35;;;;;;;16.53;13.70;;;16.60;99.90;;;;;;5008443;28;20505;-87
2021/09/08 01:17:02;;;;;;;17.07;13.00;;;16.50;99.90;;;;;;5013529;28;20485;-87
2021/09/08 01:19:29;;;;;;;16.00;13.20;;;16.50;99.90;;;;;;5016514;28;20564;-86
2021/09/08 01:21:56;;;;;;;16.17;13.40;;;16.50;99.90;;;;;;5018193;28;20440;-85
2021/09/08 01:24:24;;;;;;;15.20;13.20;;;16.50;99.90;;;;;;5013232;28;20529;-87
2021/09/08 01:26:53;;;;;;;18.37;13.13;;;16.40;99.90;;;;;;5010252;28;20516;-86
2021/09/08 01:29:20;;;;;;;14.73;12.60;;;16.50;99.90;;;;;;5017705;28;20499;-86
2021/09/08 01:31:53;;;;;;;17.50;13.03;;;16.50;99.90;;;;;;5014590;28;20454;-87
2021/09/08 01:34:20;;;;;;;14.50;11.97;;;16.40;99.90;;;;;;5004412;28;20439;-87
2021/09/08 01:36:47;;;;;;;14.80;12.97;;;16.50;99.90;;;;;;4996293;28;20455;-87
2021/09/08 01:39:18;;;;;;;18.63;12.80;;;16.40;99.90;;;;;;4995478;28;20919;-87
2021/09/08 01:41:48;;;;;;;16.90;12.93;;;16.40;99.90;;;;;;4995698;28;20533;-87
2021/09/08 01:44:19;;;;;;;15.03;13.43;;;16.40;99.90;;;;;;4996052;28;20909;-87
2021/09/08 01:46:48;;;;;;;14.87;13.27;;;16.40;99.90;;;;;;4995229;28;20392;-87
2021/09/08 01:49:14;;;;;;;16.23;12.87;;;16.40;99.90;;;;;;4995633;28;20483;-87
2021/09/08 01:51:41;;;;;;;16.47;13.67;;;16.30;99.90;;;;;;4995858;28;20453;-87
2021/09/08 01:54:08;;;;;;;15.17;12.77;;;16.30;99.90;;;;;;4995374;28;20454;-81
2021/09/08 01:56:35;;;;;;;16.53;12.93;;;16.20;99.90;;;;;;4996635;28;20464;-82
2021/09/08 01:59:03;;;;;;;16.23;12.60;;;16.20;99.90;;;;;;4996634;28;20633;-85
2021/09/08 02:01:31;;;;;;;16.80;13.10;;;16.20;99.90;;;;;;4996946;28;20948;-84
2021/09/08 02:03:57;;;;;;;15.93;13.67;;;16.10;99.90;;;;;;5001860;28;20462;-84
2021/09/08 02:06:25;;;;;;;17.77;13.80;;;16.10;99.90;;;;;;4997104;28;20552;-84
2021/09/08 02:08:53;;;;;;;15.50;13.30;;;16.00;99.90;;;;;;4996458;28;20473;-85
2021/09/08 02:11:20;;;;;;;16.30;13.97;;;16.00;99.90;;;;;;4997080;28;20525;-84
2021/09/08 02:13:47;;;;;;;16.90;14.13;;;16.00;99.90;;;;;;4996725;28;20449;-85
2021/09/08 02:16:21;;;;;;;19.93;13.43;;;15.90;99.90;;;;;;4996703;28;20445;-84
2021/09/08 02:18:49;;;;;;;19.03;14.37;;;16.00;99.90;;;;;;4996695;28;20992;-85
2021/09/08 02:21:16;;;;;;;16.77;14.03;;;15.90;99.90;;;;;;5004058;28;20457;-85
2021/09/08 02:23:42;;;;;;;15.17;13.10;;;16.00;99.90;;;;;;4998180;28;20544;-85
2021/09/08 02:26:09;;;;;;;17.60;14.70;;;15.90;99.90;;;;;;4998722;28;20514;-85
2021/09/08 02:28:36;;;;;;;17.03;13.10;;;15.90;99.90;;;;;;5001962;28;20513;-85
2021/09/08 02:31:03;;;;;;;23.20;14.17;;;15.80;99.90;;;;;;5000771;28;20536;-85
2021/09/08 02:33:32;;;;;;;18.63;14.80;;;15.80;99.90;;;;;;5000652;28;20463;-85
2021/09/08 02:35:58;;;;;;;18.83;14.00;;;15.70;99.90;;;;;;5000607;28;20519;-85
2021/09/08 02:38:25;;;;;;;16.73;13.63;;;15.70;99.90;;;;;;4997670;28;20909;-85
2021/09/08 02:40:52;;;;;;;17.70;13.90;;;15.70;99.90;;;;;;4997621;28;20500;-85
2021/09/08 02:43:19;;;;;;;16.70;14.03;;;15.70;99.90;;;;;;4997454;28;20454;-85
2021/09/08 02:45:46;;;;;;;18.73;13.77;;;15.60;99.90;;;;;;4996614;28;20423;-86
2021/09/08 02:48:13;;;;;;;15.97;13.30;;;15.70;99.90;;;;;;4996871;28;20493;-85
2021/09/08 02:50:41;;;;;;;18.20;15.17;;;15.70;99.90;;;;;;4997176;28;20523;-85
2021/09/08 02:53:08;;;;;;;16.40;13.03;;;15.70;99.90;;;;;;4997118;28;20459;-85
2021/09/08 02:55:35;;;;;;;17.33;14.17;;;15.60;99.90;;;;;;4998122;28;20515;-86
2021/09/08 02:58:02;;;;;;;18.40;13.17;;;15.70;99.90;;;;;;4997142;28;20472;-85
2021/09/08 03:00:28;;;;;;;21.63;13.83;;;15.60;99.90;;;;;;4997657;28;20482;-85
2021/09/08 03:02:55;;;;;;;22.10;14.77;;;15.60;99.90;;;;;;4998368;28;20456;-85
2021/09/08 03:05:22;;;;;;;18.57;14.40;;;15.60;99.90;;;;;;4998040;28;20520;-85
2021/09/08 03:07:50;;;;;;;16.60;13.90;;;15.60;99.90;;;;;;4996581;28;20559;-84
2021/09/08 03:13:39;;;;;;;16.00;14.30;;;15.60;99.90;;;;;;5036436;28;20438;-81
2021/09/08 03:16:06;;;;;;;17.20;14.10;;;15.70;99.90;;;;;;5036781;28;20901;-81
2021/09/08 03:18:32;;;;;;;16.87;14.23;;;15.60;99.90;;;;;;5037324;28;20484;-83
2021/09/08 03:20:59;;;;;;;15.77;12.77;;;15.60;99.90;;;;;;5037274;28;20534;-81
2021/09/08 03:23:27;;;;;;;16.27;13.97;;;15.60;99.90;;;;;;5037304;28;20959;-81
2021/09/08 03:25:54;;;;;;;18.67;13.40;;;15.70;99.90;;;;;;5044221;22;20480;-78
2021/09/08 03:28:21;;;;;;;18.00;13.73;;;15.70;99.90;;;;;;4990597;28;20522;-78
2021/09/08 03:30:48;;;;;;;16.73;14.53;;;15.60;99.90;;;;;;4990857;28;20498;-78
2021/09/08 03:33:15;;;;;;;18.30;14.30;;;15.60;99.90;;;;;;4990120;28;20527;-79
2021/09/08 03:35:42;;;;;;;20.17;14.33;;;15.40;99.90;;;;;;4995691;28;20559;-78
2021/09/08 03:38:09;;;;;;;16.47;13.70;;;15.40;99.90;;;;;;5011264;28;20421;-79
2021/09/08 03:40:38;;;;;;;19.60;14.53;;;15.50;99.90;;;;;;5010374;28;20994;-79
2021/09/08 03:43:05;;;;;;;19.97;13.83;;;15.40;99.90;;;;;;5006785;28;20427;-79
2021/09/08 03:45:31;;;;;;;17.30;14.20;;;15.30;99.90;;;;;;4991203;28;20459;-79
2021/09/08 03:47:58;;;;;;;18.60;15.23;;;15.30;99.90;;;;;;4992665;28;20460;-79
2021/09/08 03:50:26;;;;;;;16.47;14.30;;;15.30;99.90;;;;;;4992217;28;20421;-80
2021/09/08 03:52:53;;;;;;;16.90;13.83;;;15.30;99.90;;;;;;4992322;28;20514;-79
2021/09/08 03:55:19;;;;;;;19.33;14.60;;;15.30;99.90;;;;;;5009388;28;20425;-77
2021/09/08 03:57:48;;;;;;;19.13;14.10;;;15.30;99.90;;;;;;5009391;28;20534;-78
2021/09/08 04:00:15;;;;;;;18.93;14.40;;;15.20;99.90;;;;;;5009678;28;20465;-78
2021/09/08 04:02:42;;;;;;;25.73;15.40;;;15.10;99.90;;;;;;5009194;28;20449;-78
2021/09/08 04:05:10;;;;;;;18.33;15.50;;;15.10;99.90;;;;;;4990087;28;20459;-76
2021/09/08 04:07:37;;;;;;;16.50;14.53;;;15.10;99.90;;;;;;5004041;28;20548;-77
2021/09/08 04:10:04;;;;;;;16.77;14.80;;;15.10;99.90;;;;;;4993343;28;20518;-78
2021/09/08 04:12:31;;;;;;;16.53;14.40;;;15.00;99.90;;;;;;4992961;28;20495;-78
2021/09/08 04:14:59;;;;;;;18.70;15.43;;;15.00;99.90;;;;;;5009358;28;20429;-79
2021/09/08 04:17:26;;;;;;;17.17;15.10;;;15.10;99.90;;;;;;5011824;28;20557;-78
2021/09/08 04:19:53;;;;;;;23.83;15.87;;;15.20;99.90;;;;;;5010919;28;20466;-79
2021/09/08 04:22:19;;;;;;;17.57;15.07;;;15.20;99.90;;;;;;5010655;28;20456;-79
2021/09/08 04:24:46;;;;;;;17.13;14.03;;;15.10;99.90;;;;;;4994443;28;20997;-79
2021/09/08 04:27:13;;;;;;;19.60;14.87;;;15.10;99.90;;;;;;4990674;28;21021;-79
2021/09/08 04:29:40;;;;;;;22.43;15.17;;;15.10;99.90;;;;;;4990833;28;20455;-79
2021/09/08 04:32:08;;;;;;;15.43;13.50;;;15.20;99.90;;;;;;4990620;28;20422;-79
2021/09/08 04:34:35;;;;;;;21.10;15.80;;;15.10;99.90;;;;;;5005386;28;20561;-79
2021/09/08 04:37:02;;;;;;;17.53;14.50;;;15.00;99.90;;;;;;5010182;28;20477;-78
2021/09/08 04:39:29;;;;;;;22.50;16.53;;;15.00;99.90;;;;;;5010089;28;20499;-79
2021/09/08 04:41:55;;;;;;;17.40;15.13;;;15.00;99.90;;;;;;5011158;28;20450;-77
2021/09/08 04:44:24;;;;;;;19.83;14.20;;;15.00;99.90;;;;;;4998552;28;20441;-79
2021/09/08 04:46:50;;;;;;;17.90;14.73;;;15.00;99.90;;;;;;4991462;28;20479;-79
2021/09/08 04:49:19;;;;;;;20.67;15.53;;;15.00;99.90;;;;;;4991730;28;20426;-79
2021/09/08 04:51:45;;;;;;;19.83;15.40;;;15.10;99.90;;;;;;4991709;28;20460;-79
2021/09/08 04:54:13;;;;;;;19.20;15.60;;;15.00;99.90;;;;;;5002753;28;20459;-79
2021/09/08 04:56:40;;;;;;;18.90;15.43;;;15.00;99.90;;;;;;5013874;28;20837;-79
2021/09/08 04:59:06;;;;;;;20.70;15.60;;;14.90;99.90;;;;;;5013493;28;20979;-79
2021/09/08 05:01:33;;;;;;;19.13;14.67;;;14.90;99.90;;;;;;5012907;28;20446;-78
2021/09/08 05:04:00;;;;;;;17.40;14.63;;;14.90;99.90;;;;;;5004987;28;20455;-79
2021/09/08 05:06:28;;;;;;;16.97;14.37;;;14.90;99.90;;;;;;4994224;28;20477;-79
2021/09/08 05:08:55;;;;;;;17.73;14.77;;;14.90;99.90;;;;;;4999197;28;20629;-78
2021/09/08 05:11:22;;;;;;;18.73;15.30;;;15.00;99.90;;;;;;4997922;28;20479;-78
2021/09/08 05:13:49;;;;;;;16.80;15.00;;;15.00;99.90;;;;;;5003613;28;20466;-77
2021/09/08 05:16:16;;;;;;;18.80;15.03;;;15.00;99.90;;;;;;5015163;28;20437;-76
2021/09/08 05:18:42;;;;;;;18.07;14.03;;;15.00;99.90;;;;;;5016599;28;20452;-77
2021/09/08 05:21:09;;;;;;;19.63;14.87;;;15.10;99.90;;;;;;5016023;28;20591;-77
2021/09/08 05:23:38;;;;;;;16.27;13.97;;;15.00;99.90;;;;;;5009950;28;20475;-77
2021/09/08 05:26:06;;;;;;;20.33;15.13;;;15.00;99.90;;;;;;4995456;28;20451;-78
2021/09/08 05:28:33;;;;;;;17.40;14.27;;;15.00;99.90;;;;;;4996063;28;20431;-78
2021/09/08 05:31:00;;;;;;;20.40;14.70;;;15.00;99.90;;;;;;4996536;28;20546;-78
2021/09/08 05:33:27;;;;;;;19.00;14.97;;;15.00;99.90;;;;;;5001068;28;20477;-79
2021/09/08 05:35:53;;;;;;;18.53;15.00;;;15.00;99.90;;;;;;5014399;28;20459;-80
2021/09/08 05:38:20;;;;;;;20.70;15.27;;;15.10;99.90;;;;;;5013339;28;20422;-79
2021/09/08 05:40:49;;;;;;;17.67;14.60;;;15.10;99.90;;;;;;5012621;28;20483;-79
2021/09/08 05:43:16;;;;;;;19.13;15.30;;;15.10;99.90;;;;;;5010990;28;20752;-80
2021/09/08 05:45:43;;;;;;;20.03;16.67;;;15.10;99.90;;;;;;4992889;28;20991;-78
2021/09/08 05:48:10;;;;;;;21.73;15.60;;;15.10;99.90;;;;;;4994153;28;20496;-80
2021/09/08 05:50:37;;;;;;;18.40;14.90;;;15.10;99.90;;;;;;4993473;28;20547;-80
2021/09/08 05:53:04;;;;;;;21.20;15.07;;;15.10;99.90;;;;;;4993908;28;20518;-80
2021/09/08 05:55:31;;;;;;;16.23;14.53;;;15.10;99.90;;;;;;5014045;28;20451;-78
2021/09/08 05:57:59;;;;;;;18.20;16.20;;;15.10;99.90;;;;;;5013141;28;20845;-80
2021/09/08 06:00:26;;;;;;;24.87;16.07;;;15.10;99.90;;;;;;5012223;28;20504;-79
2021/09/08 06:02:53;;;;;;;20.70;15.57;;;15.10;99.90;;;;;;5012438;28;20455;-79
2021/09/08 06:05:20;;;;;;;20.80;16.50;;;15.20;99.90;;;;;;4994686;28;20460;-79
2021/09/08 06:07:46;;;;;;;19.60;15.10;;;15.20;99.90;;;;;;4997365;28;20521;-78
2021/09/08 06:10:17;;;;;;;20.23;17.20;;;15.20;99.90;;;;;;5000613;28;20468;-78
2021/09/08 06:12:44;;;;;;;21.93;16.30;;;15.30;99.90;;;;;;5000558;28;20441;-78
2021/09/08 06:15:13;;;;;;;19.63;15.67;;;15.20;99.90;;;;;;5012005;28;20458;-80
2021/09/08 06:17:40;;;;;;;18.80;15.20;;;15.30;99.90;;;;;;5014341;28;20482;-80
2021/09/08 06:20:09;;;;;;;21.83;16.93;;;15.40;99.90;;;;;;5013845;28;20490;-79
2021/09/08 06:22:36;;;;;;;19.23;15.77;;;15.50;99.90;;;;;;5014862;28;20455;-78
2021/09/08 06:25:03;;;;;;;19.57;15.50;;;15.60;99.90;;;;;;5010104;28;20462;-79
2021/09/08 06:27:29;;;;;;;18.13;14.63;;;15.60;99.90;;;;;;4995579;28;20477;-80
2021/09/08 06:29:56;;;;;;;18.07;14.67;;;15.60;99.90;;;;;;4994301;28;20547;-79
2021/09/08 06:32:24;;;;;;;18.47;15.23;;;15.70;99.90;;;;;;4994193;28;20905;-82
2021/09/08 06:34:51;;;;;;;19.50;16.87;;;15.80;99.90;;;;;;4994508;28;20456;-80
2021/09/08 06:37:18;;;;;;;20.60;16.40;;;15.90;99.90;;;;;;4993761;28;20514;-83
2021/09/08 06:39:45;;;;;;;20.33;14.70;;;16.00;99.90;;;;;;4994756;28;20463;-79
2021/09/08 06:42:12;;;;;;;19.67;17.17;;;16.00;99.90;;;;;;4994561;28;20452;-79
2021/09/08 06:44:39;;;;;;;21.80;17.70;;;16.10;99.90;;;;;;5006803;28;20461;-79
2021/09/08 06:47:05;;;;;;;23.27;19.60;;;16.20;99.90;;;;;;5013392;28;20568;-79
2021/09/08 06:49:34;;;;;;;25.77;19.30;;;16.30;99.90;;;;;;5014426;28;20537;-85
2021/09/08 06:52:00;;;;;;;23.67;16.70;;;16.40;99.90;;;;;;5018791;28;20440;-79
2021/09/08 06:54:27;;;;;;;24.77;17.50;;;16.60;99.90;;;;;;4998756;28;20548;-79
2021/09/08 06:56:54;;;;;;;22.17;17.30;;;16.70;99.90;;;;;;4993176;28;20501;-79
2021/09/08 06:59:21;;;;;;;21.07;17.77;;;16.80;99.90;;;;;;4992854;28;20515;-79
2021/09/08 07:01:48;;;;;;;23.00;18.70;;;16.90;99.90;;;;;;4992895;28;20794;-79
2021/09/08 07:04:15;;;;;;;25.30;17.73;;;17.00;99.90;;;;;;5009824;28;20453;-79
2021/09/08 07:06:43;;;;;;;25.70;19.07;;;17.10;99.90;;;;;;5012704;28;20476;-79
2021/09/08 07:09:10;;;;;;;19.70;16.60;;;17.20;99.90;;;;;;5011939;28;20464;-80
2021/09/08 07:11:37;;;;;;;22.67;17.53;;;17.40;99.90;;;;;;5002956;28;20482;-79
2021/09/08 07:14:04;;;;;;;22.47;18.00;;;17.50;99.90;;;;;;4992820;28;20825;-79
2021/09/08 07:16:31;;;;;;;20.90;18.20;;;17.60;99.90;;;;;;4992944;28;20474;-80
2021/09/08 07:18:58;;;;;;;23.07;19.30;;;17.70;99.90;;;;;;4992384;28;20425;-79
2021/09/08 07:21:24;;;;;;;21.53;17.70;;;17.80;99.90;;;;;;4999357;28;20459;-79
2021/09/08 07:23:53;;;;;;;20.23;16.80;;;18.00;99.90;;;;;;5012579;28;20426;-80
2021/09/08 07:26:19;;;;;;;21.57;18.30;;;18.10;99.90;;;;;;5012661;28;20473;-79
2021/09/08 07:28:46;;;;;;;21.43;18.03;;;18.20;99.90;;;;;;5012407;28;20450;-79
2021/09/08 07:31:13;;;;;;;24.00;18.07;;;18.30;99.90;;;;;;5006846;28;20447;-80
2021/09/08 07:33:40;;;;;;;24.67;18.60;;;18.40;99.90;;;;;;4993284;28;20972;-79
2021/09/08 07:36:07;;;;;;;22.80;18.03;;;18.60;99.90;;;;;;4992578;28;21008;-82
2021/09/08 07:38:34;;;;;;;25.93;18.70;;;18.60;99.90;;;;;;4992323;28;20457;-83
2021/09/08 07:41:03;;;;;;;25.30;18.60;;;18.60;99.90;;;;;;4997060;28;20543;-80
2021/09/08 07:43:29;;;;;;;21.57;17.93;;;18.70;99.90;;;;;;5012241;28;20454;-80
2021/09/08 07:45:56;;;;;;;30.93;18.30;;;18.80;99.90;;;;;;5013699;28;20470;-80
2021/09/08 07:48:23;;;;;;;30.73;19.77;;;18.90;99.90;;;;;;5012783;28;20514;-80
2021/09/08 07:50:50;;;;;;;25.00;17.83;;;19.00;99.90;;;;;;5011379;28;20609;-84
2021/09/08 07:53:17;;;;;;;19.07;16.40;;;19.10;99.90;;;;;;4994105;28;20886;-81
2021/09/08 07:55:44;;;;;;;23.33;16.50;;;19.20;99.90;;;;;;4993961;28;20541;-79
2021/09/08 07:58:12;;;;;;;22.33;17.03;;;19.30;99.90;;;;;;4993713;28;20532;-79
2021/09/08 08:00:39;;;;;;;21.90;16.47;;;19.40;99.90;;;;;;4993757;28;20465;-79
2021/09/08 08:03:06;;;;;;;24.33;16.70;;;19.50;99.90;;;;;;5012984;28;20461;-79
2021/09/08 08:05:33;;;;;;;23.63;16.23;;;19.50;99.90;;;;;;5012734;28;20841;-79
2021/09/08 08:08:01;;;;;;;24.70;17.27;;;19.50;99.90;;;;;;5012981;28;20496;-79
2021/09/08 08:10:29;;;;;;;22.97;17.07;;;19.50;99.90;;;;;;5014837;28;20541;-80
2021/09/08 08:12:56;;;;;;;23.43;15.50;;;19.50;99.90;;;;;;4994461;28;20487;-80
2021/09/08 08:15:24;;;;;;;20.10;16.00;;;19.60;99.90;;;;;;4993320;28;20463;-80
2021/09/08 08:17:51;;;;;;;21.23;15.37;;;19.60;99.90;;;;;;4993757;28;20476;-80
2021/09/08 08:20:20;;;;;;;15.60;13.57;;;19.60;99.90;;;;;;4994663;28;20455;-79
2021/09/08 08:22:47;;;;;;;16.90;13.93;;;19.70;99.90;;;;;;5019909;28;20457;-79
2021/09/08 08:25:16;;;;;;;18.60;14.60;;;19.70;99.90;;;;;;5017818;28;20452;-80
2021/09/08 08:27:43;;;;;;;16.27;13.70;;;19.80;99.90;;;;;;5013341;28;20519;-80
2021/09/08 08:30:13;;;;;;;16.77;13.57;;;19.90;99.90;;;;;;5016211;28;20557;-81
2021/09/08 08:32:41;;;;;;;21.93;13.17;;;19.90;99.90;;;;;;4999942;28;20506;-79
2021/09/08 08:35:09;;;;;;;14.77;13.17;;;20.00;99.90;;;;;;4998989;28;20467;-80
2021/09/08 08:37:36;;;;;;;14.90;12.80;;;20.20;99.90;;;;;;4995328;28;20593;-80
2021/09/08 08:40:05;;;;;;;17.10;12.30;;;20.20;99.90;;;;;;4996177;28;20542;-79
2021/09/08 08:42:32;;;;;;;16.00;12.97;;;20.30;99.90;;;;;;5010674;28;20565;-80
2021/09/08 08:44:59;;;;;;;14.43;11.77;;;20.50;99.90;;;;;;5015949;28;20442;-80
2021/09/08 08:47:26;;;;;;;13.70;10.40;;;20.60;99.90;;;;;;5015864;28;20481;-80
2021/09/08 08:49:55;;;;;;;16.20;11.73;;;20.50;99.90;;;;;;5017486;28;20497;-80
2021/09/08 08:52:23;;;;;;;13.77;10.40;;;20.60;99.90;;;;;;5004024;28;20498;-80
2021/09/08 08:54:50;;;;;;;13.50;11.33;;;20.80;99.90;;;;;;5012975;28;20461;-80
2021/09/08 08:57:17;;;;;;;12.87;10.37;;;20.90;99.90;;;;;;5022061;28;20471;-79
2021/09/08 08:59:46;;;;;;;11.83;9.93;;;21.00;99.90;;;;;;5026242;28;20450;-80
2021/09/08 09:02:20;;;;;;;11.53;9.60;;;21.00;99.90;;;;;;5005549;28;20494;-80
2021/09/08 09:04:47;;;;;;;11.90;10.00;;;21.10;99.90;;;;;;4997098;28;20501;-80
2021/09/08 09:07:27;;;;;;;11.50;10.30;;;21.30;99.90;;;;;;4997818;28;20493;-78
2021/09/08 09:09:56;;;;;;;13.20;9.83;;;21.50;99.90;;;;;;4996345;28;20440;-81
2021/09/08 09:12:28;;;;;;;12.77;9.50;;;21.60;99.90;;;;;;4996627;28;20456;-80
2021/09/08 09:14:59;;;;;;;11.00;9.03;;;21.50;99.90;;;;;;4996951;28;20609;-80
2021/09/08 09:17:30;;;;;;;15.00;9.60;;;21.50;99.90;;;;;;4996896;28;20472;-81
2021/09/08 09:19:58;;;;;;;10.50;8.83;;;21.50;99.90;;;;;;4995833;28;20454;-81
2021/09/08 09:22:38;;;;;;;10.90;9.03;;;21.50;99.90;;;;;;5008139;28;20457;-78
2021/09/08 09:25:06;;;;;;;11.33;9.13;;;21.60;99.90;;;;;;5015627;28;20533;-79
2021/09/08 09:27:38;;;;;;;14.90;10.10;;;21.80;99.90;;;;;;5016115;28;20458;-79
2021/09/08 09:30:08;;;;;;;11.40;9.40;;;21.80;99.90;;;;;;5015527;28;20465;-79
2021/09/08 09:32:40;;;;;;;11.73;8.10;;;21.90;99.90;;;;;;5001412;28;20451;-80
2021/09/08 09:35:09;;;;;;;10.17;9.07;;;21.90;99.90;;;;;;4996079;28;20938;-79
2021/09/08 09:37:44;;;;;;;11.30;9.13;;;22.00;99.40;;;;;;4995923;28;20774;-80
2021/09/08 09:40:11;;;;;;;11.33;9.63;;;22.00;99.40;;;;;;4995335;28;20447;-80
2021/09/08 09:42:39;;;;;;;16.63;10.57;;;22.10;99.40;;;;;;5009536;28;20497;-80
2021/09/08 09:45:08;;;;;;;17.50;11.23;;;22.20;99.50;;;;;;5015421;28;20821;-80
2021/09/08 09:47:35;;;;;;;11.20;9.17;;;22.30;99.40;;;;;;5015771;28;20461;-80
2021/09/08 09:50:06;;;;;;;11.30;9.30;;;22.40;99.40;;;;;;5016196;28;20507;-80
2021/09/08 09:52:33;;;;;;;12.27;9.70;;;22.40;99.30;;;;;;5002067;28;20440;-81
2021/09/08 09:55:01;;;;;;;14.80;9.67;;;22.60;99.20;;;;;;4996210;28;20455;-80
2021/09/08 09:57:29;;;;;;;10.83;9.17;;;22.60;98.70;;;;;;4995987;28;20503;-80
2021/09/08 09:59:57;;;;;;;13.80;9.60;;;22.70;98.20;;;;;;4996105;28;20550;-80
2021/09/08 10:02:24;;;;;;;12.80;9.43;;;22.70;98.40;;;;;;5008473;28;20478;-79
2021/09/08 10:04:51;;;;;;;15.30;9.50;;;22.70;98.50;;;;;;5015861;28;20834;-79
2021/09/08 10:07:22;;;;;;;10.33;8.93;;;22.80;98.30;;;;;;5016139;28;20509;-80
2021/09/08 10:09:51;;;;;;;11.37;9.50;;;22.80;98.10;;;;;;5015838;28;20836;-80
2021/09/08 10:12:22;;;;;;;12.57;9.00;;;22.90;97.60;;;;;;5005127;28;20512;-80
2021/09/08 10:14:50;;;;;;;11.40;9.50;;;22.90;97.80;;;;;;4997033;28;20522;-78
2021/09/08 10:17:19;;;;;;;12.60;10.03;;;23.00;97.90;;;;;;4995829;28;20491;-80
2021/09/08 10:19:49;;;;;;;11.10;8.90;;;23.00;97.80;;;;;;4995127;28;20451;-79
2021/09/08 10:22:16;;;;;;;12.63;9.67;;;23.10;97.60;;;;;;5008827;28;20501;-80
2021/09/08 10:24:48;;;;;;;11.03;8.93;;;23.10;97.50;;;;;;5018380;28;20493;-78
2021/09/08 10:27:24;;;;;;;12.13;8.83;;;23.20;97.90;;;;;;5013466;28;20486;-81
2021/09/08 10:29:52;;;;;;;11.37;9.50;;;23.20;97.40;;;;;;5020234;28;20870;-79
2021/09/08 10:32:20;;;;;;;11.47;9.67;;;23.20;97.80;;;;;;5002736;28;20515;-79
2021/09/08 10:34:49;;;;;;;12.40;9.73;;;23.20;97.30;;;;;;4997287;28;20519;-79
2021/09/08 10:37:16;;;;;;;10.17;8.57;;;23.20;97.40;;;;;;4996922;28;20558;-81
2021/09/08 10:39:43;;;;;;;12.43;9.47;;;23.20;97.70;;;;;;4999307;28;20459;-81
2021/09/08 10:42:10;;;;;;;12.37;8.93;;;23.30;97.50;;;;;;5007113;28;20490;-80
2021/09/08 10:44:43;;;;;;;12.30;9.00;;;23.30;97.50;;;;;;5017951;28;20530;-80
2021/09/08 10:47:11;;;;;;;13.33;9.57;;;23.40;97.50;;;;;;5017965;28;20542;-80
2021/09/08 10:49:51;;;;;;;11.20;9.00;;;23.40;97.50;;;;;;5017740;28;20546;-81
2021/09/08 10:52:44;;;;;;;14.33;9.67;;;23.60;97.30;;;;;;5006753;28;20422;-79
2021/09/08 10:55:22;;;;;;;10.77;9.27;;;23.80;97.20;;;;;;4994617;28;20469;-79
2021/09/08 10:57:58;;;;;;;10.60;8.80;;;23.80;96.60;;;;;;4977564;28;20456;-81
2021/09/08 11:00:39;;;;;;;10.13;9.03;;;23.80;96.90;;;;;;4986836;28;20467;-83
2021/09/08 11:03:10;;;;;;;11.27;9.73;;;23.80;96.80;;;;;;4992213;28;20470;-80
2021/09/08 11:05:50;;;;;;;10.87;9.70;;;23.80;96.70;;;;;;4978717;28;20976;-82
2021/09/08 11:08:28;;;;;;;12.03;9.70;;;23.90;96.40;;;;;;4981296;28;20452;-82
2021/09/08 11:11:11;;;;;;;9.90;8.70;;;23.90;96.30;;;;;;4978547;28;20441;-82
2021/09/08 11:13:39;;;;;;;12.20;9.07;;;24.00;96.00;;;;;;4997335;28;20475;-82
2021/09/08 11:16:20;;;;;;;9.90;8.73;;;24.00;95.40;;;;;;4998687;28;20475;-82
2021/09/08 11:18:47;;;;;;;12.10;9.77;;;24.00;95.80;;;;;;5001540;28;20442;-82
2021/09/08 11:21:16;;;;;;;10.33;8.90;;;24.10;95.80;;;;;;4998602;28;20574;-83
2021/09/08 11:23:45;;;;;;;11.03;9.83;;;24.10;95.70;;;;;;4996717;28;20451;-82
2021/09/08 11:26:13;;;;;;;9.83;8.57;;;24.20;94.80;;;;;;5001853;28;20486;-82
2021/09/08 11:28:41;;;;;;;11.90;9.50;;;24.30;94.60;;;;;;5007243;28;20475;-82
2021/09/08 11:31:13;;;;;;;11.10;9.63;;;24.30;95.30;;;;;;4999636;28;20512;-82
2021/09/08 11:33:42;;;;;;;11.07;9.17;;;24.30;95.30;;;;;;4996365;28;20469;-82
2021/09/08 11:36:15;;;;;;;10.90;8.50;;;24.30;95.00;;;;;;4996657;28;20549;-82
2021/09/08 11:38:47;;;;;;;13.03;8.57;;;24.40;94.80;;;;;;5000602;28;20455;-83
2021/09/08 11:41:16;;;;;;;11.73;9.10;;;24.40;94.50;;;;;;5020142;28;20438;-83
2021/09/08 11:43:47;;;;;;;9.47;8.47;;;24.40;94.90;;;;;;5017091;28;20446;-83
2021/09/08 11:46:16;;;;;;;11.23;8.50;;;24.40;94.70;;;;;;5015910;28;20524;-83
2021/09/08 11:48:47;;;;;;;10.60;8.03;;;24.40;94.10;;;;;;5015854;28;20454;-83
2021/09/08 11:51:15;;;;;;;10.10;8.93;;;24.50;94.50;;;;;;5007258;28;20530;-83
2021/09/08 11:53:42;;;;;;;9.80;8.17;;;24.60;94.20;;;;;;4997398;28;20460;-83
2021/09/08 11:56:11;;;;;;;10.00;9.00;;;24.60;94.30;;;;;;4996620;28;20463;-83
2021/09/08 11:58:39;;;;;;;9.90;8.30;;;24.70;94.20;;;;;;5003879;28;20507;-82
2021/09/08 12:01:09;;;;;;;10.77;8.80;;;24.70;93.80;;;;;;5010953;28;20530;-83
2021/09/08 12:03:39;;;;;;;9.83;8.80;;;24.80;93.90;;;;;;5017207;28;20553;-82
2021/09/08 12:06:13;;;;;;;12.00;8.67;;;24.80;93.80;;;;;;5020196;28;20538;-83
2021/09/08 12:08:51;;;;;;;10.50;8.83;;;24.80;93.90;;;;;;5019270;28;20502;-83
2021/09/08 12:11:39;;;;;;;11.17;9.60;;;24.80;93.90;;;;;;5011196;28;20454;-82
2021/09/08 12:14:16;;;;;;;9.10;7.80;;;24.90;93.90;;;;;;4999698;28;20443;-83
2021/09/08 12:16:43;;;;;;;10.13;7.97;;;25.00;93.70;;;;;;4999513;28;20481;-83
2021/09/08 12:19:11;;;;;;;9.17;8.17;;;25.10;93.30;;;;;;4999137;28;20455;-83
2021/09/08 12:21:40;;;;;;;9.13;8.10;;;25.10;93.10;;;;;;5010564;28;20487;-83
2021/09/08 12:24:22;;;;;;;8.43;7.50;;;25.10;92.90;;;;;;5019081;28;20485;-83
2021/09/08 12:26:49;;;;;;;10.87;8.90;;;25.20;92.80;;;;;;5018710;28;20506;-83
2021/09/08 12:29:16;;;;;;;10.40;8.40;;;25.20;92.60;;;;;;5019120;28;20454;-83
2021/09/08 12:31:51;;;;;;;10.90;7.50;;;25.20;92.20;;;;;;5007480;28;21019;-83
2021/09/08 12:34:18;;;;;;;8.70;7.37;;;25.30;91.10;;;;;;4999313;28;20561;-83
2021/09/08 12:36:46;;;;;;;11.23;7.40;;;25.30;90.90;;;;;;4999886;28;20530;-83
2021/09/08 12:39:16;;;;;;;9.20;7.20;;;25.30;90.20;;;;;;5001480;28;20447;-82